sensor_id;sensor_type;location;lat;lon;timestamp;temperature;humidity
728;DHT22;347;48.780;9.158;2022-10-26T00:00:51;15.80;40.70
728;DHT22;347;48.780;9.158;2022-10-26T00:03:17;15.80;39.80
728;DHT22;347;48.780;9.158;2022-10-26T00:05:44;15.80;40.60
728;DHT22;347;48.780;9.158;2022-10-26T00:08:10;15.80;40.30
728;DHT22;347;48.780;9.158;2022-10-26T00:10:37;15.80;40.30
728;DHT22;347;48.780;9.158;2022-10-26T00:13:04;15.80;40.20
728;DHT22;347;48.780;9.158;2022-10-26T00:15:30;15.90;39.90
728;DHT22;347;48.780;9.158;2022-10-26T00:17:56;15.80;39.60
728;DHT22;347;48.780;9.158;2022-10-26T00:20:22;15.80;39.40
728;DHT22;347;48.780;9.158;2022-10-26T00:22:47;15.70;40.00
728;DHT22;347;48.780;9.158;2022-10-26T00:25:13;15.70;40.10
728;DHT22;347;48.780;9.158;2022-10-26T00:27:39;15.80;40.30
728;DHT22;347;48.780;9.158;2022-10-26T00:30:05;15.80;40.50
728;DHT22;347;48.780;9.158;2022-10-26T00:32:31;15.80;40.20
728;DHT22;347;48.780;9.158;2022-10-26T00:34:57;15.80;40.00
728;DHT22;347;48.780;9.158;2022-10-26T00:37:22;15.80;40.00
728;DHT22;347;48.780;9.158;2022-10-26T00:39:48;15.90;40.20
728;DHT22;347;48.780;9.158;2022-10-26T00:42:18;15.80;40.00
728;DHT22;347;48.780;9.158;2022-10-26T00:47:28;15.90;39.70
728;DHT22;347;48.780;9.158;2022-10-26T00:49:57;15.90;39.90
728;DHT22;347;48.780;9.158;2022-10-26T00:52:24;15.90;40.00
728;DHT22;347;48.780;9.158;2022-10-26T00:54:50;15.90;40.00
728;DHT22;347;48.780;9.158;2022-10-26T00:57:17;15.90;39.90
728;DHT22;347;48.780;9.158;2022-10-26T00:59:44;15.90;40.50
728;DHT22;347;48.780;9.158;2022-10-26T01:02:11;15.90;40.00
728;DHT22;347;48.780;9.158;2022-10-26T01:04:37;15.90;40.60
728;DHT22;347;48.780;9.158;2022-10-26T01:07:04;15.90;40.60
728;DHT22;347;48.780;9.158;2022-10-26T01:09:31;15.90;40.80
728;DHT22;347;48.780;9.158;2022-10-26T01:11:57;15.90;40.80
728;DHT22;347;48.780;9.158;2022-10-26T01:14:24;15.90;41.20
728;DHT22;347;48.780;9.158;2022-10-26T01:20:12;15.90;41.80
728;DHT22;347;48.780;9.158;2022-10-26T01:23:05;15.90;42.10
728;DHT22;347;48.780;9.158;2022-10-26T01:25:40;15.90;42.10
728;DHT22;347;48.780;9.158;2022-10-26T01:28:24;15.90;42.10
728;DHT22;347;48.780;9.158;2022-10-26T01:30:53;15.90;41.80
728;DHT22;347;48.780;9.158;2022-10-26T01:33:31;15.90;41.70
728;DHT22;347;48.780;9.158;2022-10-26T01:38:55;15.90;41.90
728;DHT22;347;48.780;9.158;2022-10-26T01:41:38;15.90;41.80
728;DHT22;347;48.780;9.158;2022-10-26T01:46:59;15.90;41.80
728;DHT22;347;48.780;9.158;2022-10-26T01:49:28;15.90;41.80
728;DHT22;347;48.780;9.158;2022-10-26T01:51:54;15.90;41.80
728;DHT22;347;48.780;9.158;2022-10-26T01:54:20;15.90;41.80
728;DHT22;347;48.780;9.158;2022-10-26T01:56:52;15.90;42.10
728;DHT22;347;48.780;9.158;2022-10-26T02:00:02;15.70;43.20
728;DHT22;347;48.780;9.158;2022-10-26T02:02:55;15.60;45.00
728;DHT22;347;48.780;9.158;2022-10-26T02:05:32;15.60;45.90
728;DHT22;347;48.780;9.158;2022-10-26T02:10:56;15.50;46.50
728;DHT22;347;48.780;9.158;2022-10-26T02:21:23;15.60;48.00
728;DHT22;347;48.780;9.158;2022-10-26T02:23:51;15.50;47.70
728;DHT22;347;48.780;9.158;2022-10-26T02:26:23;15.50;47.90
728;DHT22;347;48.780;9.158;2022-10-26T02:28:52;15.40;48.80
728;DHT22;347;48.780;9.158;2022-10-26T02:31:19;15.40;48.90
728;DHT22;347;48.780;9.158;2022-10-26T02:33:48;15.50;48.40
728;DHT22;347;48.780;9.158;2022-10-26T02:36:24;15.50;48.00
728;DHT22;347;48.780;9.158;2022-10-26T02:38:53;15.50;47.40
728;DHT22;347;48.780;9.158;2022-10-26T02:41:20;15.60;47.20
728;DHT22;347;48.780;9.158;2022-10-26T02:43:58;15.60;46.80
728;DHT22;347;48.780;9.158;2022-10-26T02:46:26;15.60;47.40
728;DHT22;347;48.780;9.158;2022-10-26T02:48:52;15.60;47.20
728;DHT22;347;48.780;9.158;2022-10-26T02:51:34;15.60;47.30
728;DHT22;347;48.780;9.158;2022-10-26T02:54:18;15.60;47.50
728;DHT22;347;48.780;9.158;2022-10-26T02:57:06;15.60;47.80
728;DHT22;347;48.780;9.158;2022-10-26T02:59:35;15.60;48.20
728;DHT22;347;48.780;9.158;2022-10-26T03:02:01;15.60;48.40
728;DHT22;347;48.780;9.158;2022-10-26T03:04:29;15.60;48.70
728;DHT22;347;48.780;9.158;2022-10-26T03:06:55;15.60;48.50
728;DHT22;347;48.780;9.158;2022-10-26T03:09:21;15.60;48.10
728;DHT22;347;48.780;9.158;2022-10-26T03:11:47;15.60;48.10
728;DHT22;347;48.780;9.158;2022-10-26T03:14:12;15.60;47.90
728;DHT22;347;48.780;9.158;2022-10-26T03:16:38;15.60;47.50
728;DHT22;347;48.780;9.158;2022-10-26T03:19:03;15.60;47.00
728;DHT22;347;48.780;9.158;2022-10-26T03:21:30;15.60;46.50
728;DHT22;347;48.780;9.158;2022-10-26T03:23:55;15.60;46.90
728;DHT22;347;48.780;9.158;2022-10-26T03:26:21;15.60;47.80
728;DHT22;347;48.780;9.158;2022-10-26T03:28:47;15.60;46.60
728;DHT22;347;48.780;9.158;2022-10-26T03:31:12;15.60;47.40
728;DHT22;347;48.780;9.158;2022-10-26T03:33:38;15.60;47.30
728;DHT22;347;48.780;9.158;2022-10-26T03:36:04;15.60;47.50
728;DHT22;347;48.780;9.158;2022-10-26T03:38:29;15.60;47.40
728;DHT22;347;48.780;9.158;2022-10-26T03:40:55;15.50;49.10
728;DHT22;347;48.780;9.158;2022-10-26T03:43:20;15.40;49.80
728;DHT22;347;48.780;9.158;2022-10-26T03:45:46;15.40;49.70
728;DHT22;347;48.780;9.158;2022-10-26T03:48:12;15.40;49.70
728;DHT22;347;48.780;9.158;2022-10-26T03:50:38;15.40;50.10
728;DHT22;347;48.780;9.158;2022-10-26T03:53:04;15.50;50.10
728;DHT22;347;48.780;9.158;2022-10-26T03:55:30;15.40;48.80
728;DHT22;347;48.780;9.158;2022-10-26T03:57:55;15.40;49.10
728;DHT22;347;48.780;9.158;2022-10-26T04:00:21;15.40;49.70
728;DHT22;347;48.780;9.158;2022-10-26T04:02:56;15.50;50.30
728;DHT22;347;48.780;9.158;2022-10-26T04:05:26;15.40;50.00
728;DHT22;347;48.780;9.158;2022-10-26T04:07:53;15.40;49.00
728;DHT22;347;48.780;9.158;2022-10-26T04:10:19;15.40;49.70
728;DHT22;347;48.780;9.158;2022-10-26T04:12:44;15.50;49.80
728;DHT22;347;48.780;9.158;2022-10-26T04:15:10;15.50;50.20
728;DHT22;347;48.780;9.158;2022-10-26T04:17:36;15.50;50.00
728;DHT22;347;48.780;9.158;2022-10-26T04:20:02;15.50;50.00
728;DHT22;347;48.780;9.158;2022-10-26T04:22:27;15.60;49.60
728;DHT22;347;48.780;9.158;2022-10-26T04:24:53;15.60;49.20
728;DHT22;347;48.780;9.158;2022-10-26T04:27:19;15.60;49.20
728;DHT22;347;48.780;9.158;2022-10-26T04:29:44;15.60;48.90
728;DHT22;347;48.780;9.158;2022-10-26T04:32:10;15.60;48.90
728;DHT22;347;48.780;9.158;2022-10-26T04:34:35;15.70;49.10
728;DHT22;347;48.780;9.158;2022-10-26T04:37:01;15.70;49.40
728;DHT22;347;48.780;9.158;2022-10-26T04:39:27;15.70;49.30
728;DHT22;347;48.780;9.158;2022-10-26T04:41:53;15.70;49.40
728;DHT22;347;48.780;9.158;2022-10-26T04:44:19;15.50;47.20
728;DHT22;347;48.780;9.158;2022-10-26T04:46:44;15.50;47.10
728;DHT22;347;48.780;9.158;2022-10-26T04:49:10;15.40;47.20
728;DHT22;347;48.780;9.158;2022-10-26T04:51:36;15.30;47.90
728;DHT22;347;48.780;9.158;2022-10-26T04:54:01;15.30;48.50
728;DHT22;347;48.780;9.158;2022-10-26T04:56:28;15.30;48.80
728;DHT22;347;48.780;9.158;2022-10-26T04:58:54;15.30;49.20
728;DHT22;347;48.780;9.158;2022-10-26T05:01:20;15.30;49.20
728;DHT22;347;48.780;9.158;2022-10-26T05:03:50;15.30;49.30
728;DHT22;347;48.780;9.158;2022-10-26T05:06:15;15.30;49.30
728;DHT22;347;48.780;9.158;2022-10-26T05:08:41;15.40;49.70
728;DHT22;347;48.780;9.158;2022-10-26T05:11:07;15.40;49.10
728;DHT22;347;48.780;9.158;2022-10-26T05:13:32;15.40;48.70
728;DHT22;347;48.780;9.158;2022-10-26T05:15:58;15.30;48.70
728;DHT22;347;48.780;9.158;2022-10-26T05:18:24;15.30;49.30
728;DHT22;347;48.780;9.158;2022-10-26T05:20:54;15.30;48.80
728;DHT22;347;48.780;9.158;2022-10-26T05:23:20;15.30;49.00
728;DHT22;347;48.780;9.158;2022-10-26T05:25:46;15.30;48.70
728;DHT22;347;48.780;9.158;2022-10-26T05:28:13;15.40;48.30
728;DHT22;347;48.780;9.158;2022-10-26T05:30:44;15.30;48.20
728;DHT22;347;48.780;9.158;2022-10-26T05:33:11;15.30;48.60
728;DHT22;347;48.780;9.158;2022-10-26T05:35:37;15.30;49.00
728;DHT22;347;48.780;9.158;2022-10-26T05:38:11;15.30;48.70
728;DHT22;347;48.780;9.158;2022-10-26T05:40:37;15.30;48.60
728;DHT22;347;48.780;9.158;2022-10-26T05:43:03;15.30;49.00
728;DHT22;347;48.780;9.158;2022-10-26T05:45:29;15.30;48.80
728;DHT22;347;48.780;9.158;2022-10-26T05:47:54;15.30;48.40
728;DHT22;347;48.780;9.158;2022-10-26T05:50:20;15.30;48.20
728;DHT22;347;48.780;9.158;2022-10-26T05:52:46;15.40;48.50
728;DHT22;347;48.780;9.158;2022-10-26T05:55:15;15.40;47.70
728;DHT22;347;48.780;9.158;2022-10-26T05:57:41;15.50;47.10
728;DHT22;347;48.780;9.158;2022-10-26T06:00:21;15.50;47.00
728;DHT22;347;48.780;9.158;2022-10-26T06:05:26;15.60;46.60
728;DHT22;347;48.780;9.158;2022-10-26T06:07:53;15.70;46.60
728;DHT22;347;48.780;9.158;2022-10-26T06:10:19;15.70;46.60
728;DHT22;347;48.780;9.158;2022-10-26T06:12:45;15.70;46.70
728;DHT22;347;48.780;9.158;2022-10-26T06:15:15;15.70;46.60
728;DHT22;347;48.780;9.158;2022-10-26T06:20:26;15.70;46.60
728;DHT22;347;48.780;9.158;2022-10-26T06:28:23;15.80;46.70
728;DHT22;347;48.780;9.158;2022-10-26T06:30:52;15.80;45.90
728;DHT22;347;48.780;9.158;2022-10-26T06:33:19;15.80;45.70
728;DHT22;347;48.780;9.158;2022-10-26T06:38:36;15.90;46.30
728;DHT22;347;48.780;9.158;2022-10-26T06:41:02;15.90;45.60
728;DHT22;347;48.780;9.158;2022-10-26T06:43:31;16.00;44.90
728;DHT22;347;48.780;9.158;2022-10-26T06:48:26;16.00;45.80
728;DHT22;347;48.780;9.158;2022-10-26T06:50:54;15.90;46.40
728;DHT22;347;48.780;9.158;2022-10-26T06:55:57;15.90;46.80
728;DHT22;347;48.780;9.158;2022-10-26T06:58:26;15.90;47.30
728;DHT22;347;48.780;9.158;2022-10-26T07:00:53;15.90;47.10
728;DHT22;347;48.780;9.158;2022-10-26T07:03:20;15.90;47.30
728;DHT22;347;48.780;9.158;2022-10-26T07:05:45;15.90;47.90
728;DHT22;347;48.780;9.158;2022-10-26T07:08:11;15.90;48.00
728;DHT22;347;48.780;9.158;2022-10-26T07:10:38;15.90;48.00
728;DHT22;347;48.780;9.158;2022-10-26T07:13:04;15.90;48.00
728;DHT22;347;48.780;9.158;2022-10-26T07:15:31;16.00;47.90
728;DHT22;347;48.780;9.158;2022-10-26T07:17:57;16.00;47.70
728;DHT22;347;48.780;9.158;2022-10-26T07:20:22;16.00;47.80
728;DHT22;347;48.780;9.158;2022-10-26T07:22:52;16.00;47.00
728;DHT22;347;48.780;9.158;2022-10-26T07:25:18;16.00;46.90
728;DHT22;347;48.780;9.158;2022-10-26T07:27:44;16.10;47.00
728;DHT22;347;48.780;9.158;2022-10-26T07:30:10;16.10;47.50
728;DHT22;347;48.780;9.158;2022-10-26T07:32:36;16.00;46.90
728;DHT22;347;48.780;9.158;2022-10-26T07:35:02;16.10;47.00
728;DHT22;347;48.780;9.158;2022-10-26T07:37:27;16.10;47.00
728;DHT22;347;48.780;9.158;2022-10-26T07:39:53;16.10;47.00
728;DHT22;347;48.780;9.158;2022-10-26T07:42:19;16.10;47.00
728;DHT22;347;48.780;9.158;2022-10-26T07:44:44;16.10;47.00
728;DHT22;347;48.780;9.158;2022-10-26T07:47:10;16.10;46.40
728;DHT22;347;48.780;9.158;2022-10-26T07:49:36;16.20;46.40
728;DHT22;347;48.780;9.158;2022-10-26T07:52:02;16.20;47.00
728;DHT22;347;48.780;9.158;2022-10-26T07:54:27;16.20;47.10
728;DHT22;347;48.780;9.158;2022-10-26T07:56:53;16.20;47.10
728;DHT22;347;48.780;9.158;2022-10-26T07:59:19;16.20;46.20
728;DHT22;347;48.780;9.158;2022-10-26T08:01:44;16.20;46.50
728;DHT22;347;48.780;9.158;2022-10-26T08:04:10;16.30;46.10
728;DHT22;347;48.780;9.158;2022-10-26T08:06:36;16.30;46.30
728;DHT22;347;48.780;9.158;2022-10-26T08:09:02;16.30;45.40
728;DHT22;347;48.780;9.158;2022-10-26T08:11:28;16.30;45.70
728;DHT22;347;48.780;9.158;2022-10-26T08:13:54;16.40;45.70
728;DHT22;347;48.780;9.158;2022-10-26T08:16:21;16.40;45.50
728;DHT22;347;48.780;9.158;2022-10-26T08:18:50;16.40;46.20
728;DHT22;347;48.780;9.158;2022-10-26T08:21:16;16.40;46.00
728;DHT22;347;48.780;9.158;2022-10-26T08:23:42;16.50;46.20
728;DHT22;347;48.780;9.158;2022-10-26T08:26:09;16.50;45.20
728;DHT22;347;48.780;9.158;2022-10-26T08:28:38;16.50;45.90
728;DHT22;347;48.780;9.158;2022-10-26T08:31:04;16.50;45.20
728;DHT22;347;48.780;9.158;2022-10-26T08:33:30;16.50;45.50
728;DHT22;347;48.780;9.158;2022-10-26T08:35:57;16.60;45.00
728;DHT22;347;48.780;9.158;2022-10-26T08:38:23;16.60;45.60
728;DHT22;347;48.780;9.158;2022-10-26T08:40:49;16.60;45.10
728;DHT22;347;48.780;9.158;2022-10-26T08:43:23;16.60;45.40
728;DHT22;347;48.780;9.158;2022-10-26T08:45:54;16.60;45.20
728;DHT22;347;48.780;9.158;2022-10-26T08:48:26;16.70;45.10
728;DHT22;347;48.780;9.158;2022-10-26T08:51:02;16.70;45.30
728;DHT22;347;48.780;9.158;2022-10-26T08:53:36;16.70;45.50
728;DHT22;347;48.780;9.158;2022-10-26T08:58:40;16.70;45.00
728;DHT22;347;48.780;9.158;2022-10-26T09:01:08;16.70;45.40
728;DHT22;347;48.780;9.158;2022-10-26T09:03:34;16.80;44.90
728;DHT22;347;48.780;9.158;2022-10-26T09:06:31;16.70;44.80
728;DHT22;347;48.780;9.158;2022-10-26T09:09:18;16.80;45.20
728;DHT22;347;48.780;9.158;2022-10-26T09:14:23;16.90;44.30
728;DHT22;347;48.780;9.158;2022-10-26T09:22:49;17.00;44.10
728;DHT22;347;48.780;9.158;2022-10-26T09:25:20;17.10;44.20
728;DHT22;347;48.780;9.158;2022-10-26T09:27:54;17.10;43.60
728;DHT22;347;48.780;9.158;2022-10-26T09:30:21;17.10;43.30
728;DHT22;347;48.780;9.158;2022-10-26T09:33:14;17.20;43.10
728;DHT22;347;48.780;9.158;2022-10-26T09:38:35;17.30;44.00
728;DHT22;347;48.780;9.158;2022-10-26T09:46:31;17.60;42.80
728;DHT22;347;48.780;9.158;2022-10-26T09:49:00;17.70;42.70
728;DHT22;347;48.780;9.158;2022-10-26T09:51:29;17.80;42.00
728;DHT22;347;48.780;9.158;2022-10-26T09:53:58;17.90;40.70
728;DHT22;347;48.780;9.158;2022-10-26T09:56:27;18.10;40.40
728;DHT22;347;48.780;9.158;2022-10-26T09:59:02;18.20;39.90
728;DHT22;347;48.780;9.158;2022-10-26T10:01:31;18.30;38.80
728;DHT22;347;48.780;9.158;2022-10-26T10:06:42;18.50;38.40
728;DHT22;347;48.780;9.158;2022-10-26T10:11:53;18.70;37.90
728;DHT22;347;48.780;9.158;2022-10-26T10:14:31;18.70;39.10
728;DHT22;347;48.780;9.158;2022-10-26T10:17:06;18.70;37.60
728;DHT22;347;48.780;9.158;2022-10-26T10:19:36;18.80;37.20
728;DHT22;347;48.780;9.158;2022-10-26T10:22:19;18.80;36.80
728;DHT22;347;48.780;9.158;2022-10-26T10:24:54;18.80;36.50
728;DHT22;347;48.780;9.158;2022-10-26T10:27:21;18.90;36.60
728;DHT22;347;48.780;9.158;2022-10-26T10:29:57;18.80;36.90
728;DHT22;347;48.780;9.158;2022-10-26T10:32:25;18.90;36.70
728;DHT22;347;48.780;9.158;2022-10-26T10:34:58;18.90;36.60
728;DHT22;347;48.780;9.158;2022-10-26T10:39:57;19.10;36.70
728;DHT22;347;48.780;9.158;2022-10-26T10:42:29;19.10;37.10
728;DHT22;347;48.780;9.158;2022-10-26T10:44:56;19.20;36.70
728;DHT22;347;48.780;9.158;2022-10-26T10:47:28;19.20;36.70
728;DHT22;347;48.780;9.158;2022-10-26T10:50:10;19.20;36.50
728;DHT22;347;48.780;9.158;2022-10-26T10:52:40;19.30;36.30
728;DHT22;347;48.780;9.158;2022-10-26T11:00:12;19.40;36.20
728;DHT22;347;48.780;9.158;2022-10-26T11:08:55;19.40;35.60
728;DHT22;347;48.780;9.158;2022-10-26T11:11:24;19.50;36.50
728;DHT22;347;48.780;9.158;2022-10-26T11:16:40;19.50;36.50
728;DHT22;347;48.780;9.158;2022-10-26T11:21:35;19.50;35.40
728;DHT22;347;48.780;9.158;2022-10-26T11:27:52;19.50;35.80
728;DHT22;347;48.780;9.158;2022-10-26T11:30:21;19.60;34.90
728;DHT22;347;48.780;9.158;2022-10-26T11:32:52;19.60;34.40
728;DHT22;347;48.780;9.158;2022-10-26T11:35:21;19.60;34.50
728;DHT22;347;48.780;9.158;2022-10-26T11:38:22;19.70;34.40
728;DHT22;347;48.780;9.158;2022-10-26T11:41:14;19.70;34.80
728;DHT22;347;48.780;9.158;2022-10-26T11:46:35;19.70;35.00
728;DHT22;347;48.780;9.158;2022-10-26T11:49:27;19.70;35.00
728;DHT22;347;48.780;9.158;2022-10-26T11:52:23;19.60;35.30
728;DHT22;347;48.780;9.158;2022-10-26T11:55:01;19.70;35.30
728;DHT22;347;48.780;9.158;2022-10-26T11:57:31;19.70;35.50
728;DHT22;347;48.780;9.158;2022-10-26T12:00:07;19.70;35.20
728;DHT22;347;48.780;9.158;2022-10-26T12:02:41;19.70;35.40
728;DHT22;347;48.780;9.158;2022-10-26T12:05:21;19.70;35.80
728;DHT22;347;48.780;9.158;2022-10-26T12:07:51;19.70;36.50
728;DHT22;347;48.780;9.158;2022-10-26T12:10:30;19.70;36.20
728;DHT22;347;48.780;9.158;2022-10-26T12:12:58;19.70;33.90
728;DHT22;347;48.780;9.158;2022-10-26T12:23:15;19.80;36.00
728;DHT22;347;48.780;9.158;2022-10-26T12:25:41;19.80;34.00
728;DHT22;347;48.780;9.158;2022-10-26T12:33:55;20.10;31.60
728;DHT22;347;48.780;9.158;2022-10-26T12:39:47;20.10;31.20
728;DHT22;347;48.780;9.158;2022-10-26T12:47:09;20.10;31.60
728;DHT22;347;48.780;9.158;2022-10-26T12:52:52;20.20;31.40
728;DHT22;347;48.780;9.158;2022-10-26T12:55:57;20.20;31.60
728;DHT22;347;48.780;9.158;2022-10-26T12:58:54;20.20;32.10
728;DHT22;347;48.780;9.158;2022-10-26T13:09:26;20.30;31.00
728;DHT22;347;48.780;9.158;2022-10-26T13:11:55;20.30;30.10
728;DHT22;347;48.780;9.158;2022-10-26T13:14:27;20.30;30.10
728;DHT22;347;48.780;9.158;2022-10-26T13:16:55;20.30;30.80
728;DHT22;347;48.780;9.158;2022-10-26T13:19:44;20.30;30.10
728;DHT22;347;48.780;9.158;2022-10-26T13:22:15;20.30;30.20
728;DHT22;347;48.780;9.158;2022-10-26T13:24:50;20.30;30.00
728;DHT22;347;48.780;9.158;2022-10-26T13:30:33;20.40;28.90
728;DHT22;347;48.780;9.158;2022-10-26T13:33:01;20.50;29.40
728;DHT22;347;48.780;9.158;2022-10-26T13:35:27;20.60;29.40
728;DHT22;347;48.780;9.158;2022-10-26T13:37:55;20.60;29.20
728;DHT22;347;48.780;9.158;2022-10-26T13:40:26;20.60;29.50
728;DHT22;347;48.780;9.158;2022-10-26T13:42:59;20.60;30.40
728;DHT22;347;48.780;9.158;2022-10-26T13:45:29;20.50;30.60
728;DHT22;347;48.780;9.158;2022-10-26T13:50:56;20.40;30.20
728;DHT22;347;48.780;9.158;2022-10-26T13:53:37;20.40;30.20
728;DHT22;347;48.780;9.158;2022-10-26T14:01:16;20.20;30.50
728;DHT22;347;48.780;9.158;2022-10-26T14:03:46;20.30;29.90
728;DHT22;347;48.780;9.158;2022-10-26T14:08:39;20.50;28.20
728;DHT22;347;48.780;9.158;2022-10-26T14:11:10;20.50;28.60
728;DHT22;347;48.780;9.158;2022-10-26T14:13:37;20.60;28.10
728;DHT22;347;48.780;9.158;2022-10-26T14:16:06;20.70;27.60
728;DHT22;347;48.780;9.158;2022-10-26T14:18:33;20.70;28.20
728;DHT22;347;48.780;9.158;2022-10-26T14:21:00;20.60;28.50
728;DHT22;347;48.780;9.158;2022-10-26T14:23:27;20.60;29.60
728;DHT22;347;48.780;9.158;2022-10-26T14:25:54;20.60;28.80
728;DHT22;347;48.780;9.158;2022-10-26T14:28:28;20.70;28.10
728;DHT22;347;48.780;9.158;2022-10-26T14:31:17;20.90;27.70
728;DHT22;347;48.780;9.158;2022-10-26T14:33:44;20.90;27.60
728;DHT22;347;48.780;9.158;2022-10-26T14:36:11;20.90;28.40
728;DHT22;347;48.780;9.158;2022-10-26T14:38:45;20.70;28.80
728;DHT22;347;48.780;9.158;2022-10-26T14:41:15;20.70;28.50
728;DHT22;347;48.780;9.158;2022-10-26T14:43:42;20.70;28.60
728;DHT22;347;48.780;9.158;2022-10-26T14:46:18;20.70;28.90
728;DHT22;347;48.780;9.158;2022-10-26T14:48:55;20.70;29.90
728;DHT22;347;48.780;9.158;2022-10-26T14:51:30;20.50;30.00
728;DHT22;347;48.780;9.158;2022-10-26T14:53:59;20.50;29.60
728;DHT22;347;48.780;9.158;2022-10-26T14:59:27;20.50;29.80
728;DHT22;347;48.780;9.158;2022-10-26T15:05:02;20.50;29.10
728;DHT22;347;48.780;9.158;2022-10-26T15:07:36;20.50;29.90
728;DHT22;347;48.780;9.158;2022-10-26T15:10:03;20.40;30.50
728;DHT22;347;48.780;9.158;2022-10-26T15:12:32;20.30;30.90
728;DHT22;347;48.780;9.158;2022-10-26T15:17:40;20.10;31.30
728;DHT22;347;48.780;9.158;2022-10-26T15:20:11;20.00;31.10
728;DHT22;347;48.780;9.158;2022-10-26T15:22:38;20.00;31.50
728;DHT22;347;48.780;9.158;2022-10-26T15:25:05;19.90;31.50
728;DHT22;347;48.780;9.158;2022-10-26T15:27:31;19.90;31.90
728;DHT22;347;48.780;9.158;2022-10-26T15:30:35;19.90;31.60
728;DHT22;347;48.780;9.158;2022-10-26T15:33:17;19.80;32.30
728;DHT22;347;48.780;9.158;2022-10-26T15:35:44;19.70;32.60
728;DHT22;347;48.780;9.158;2022-10-26T15:38:10;19.70;32.90
728;DHT22;347;48.780;9.158;2022-10-26T15:40:41;19.60;33.30
728;DHT22;347;48.780;9.158;2022-10-26T15:43:10;19.60;33.70
728;DHT22;347;48.780;9.158;2022-10-26T15:45:45;19.50;34.60
728;DHT22;347;48.780;9.158;2022-10-26T15:48:17;19.50;35.30
728;DHT22;347;48.780;9.158;2022-10-26T15:50:43;19.40;35.60
728;DHT22;347;48.780;9.158;2022-10-26T15:53:16;19.30;35.90
728;DHT22;347;48.780;9.158;2022-10-26T15:55:42;19.30;36.80
728;DHT22;347;48.780;9.158;2022-10-26T15:58:09;19.20;37.30
728;DHT22;347;48.780;9.158;2022-10-26T16:00:35;19.20;37.50
728;DHT22;347;48.780;9.158;2022-10-26T16:03:02;19.10;37.60
728;DHT22;347;48.780;9.158;2022-10-26T16:05:27;19.10;38.10
728;DHT22;347;48.780;9.158;2022-10-26T16:07:53;19.00;38.10
728;DHT22;347;48.780;9.158;2022-10-26T16:10:22;18.90;38.40
728;DHT22;347;48.780;9.158;2022-10-26T16:12:48;18.90;38.50
728;DHT22;347;48.780;9.158;2022-10-26T16:15:23;18.90;39.70
728;DHT22;347;48.780;9.158;2022-10-26T16:17:50;18.80;39.30
728;DHT22;347;48.780;9.158;2022-10-26T16:20:18;18.80;39.20
728;DHT22;347;48.780;9.158;2022-10-26T16:22:47;18.80;39.00
728;DHT22;347;48.780;9.158;2022-10-26T16:25:15;18.80;39.20
728;DHT22;347;48.780;9.158;2022-10-26T16:27:40;18.70;39.20
728;DHT22;347;48.780;9.158;2022-10-26T16:30:07;18.70;39.60
728;DHT22;347;48.780;9.158;2022-10-26T16:32:32;18.60;39.60
728;DHT22;347;48.780;9.158;2022-10-26T16:34:58;18.60;39.70
728;DHT22;347;48.780;9.158;2022-10-26T16:37:24;18.50;39.80
728;DHT22;347;48.780;9.158;2022-10-26T16:39:49;18.50;39.80
728;DHT22;347;48.780;9.158;2022-10-26T16:42:15;18.50;40.50
728;DHT22;347;48.780;9.158;2022-10-26T16:44:40;18.40;40.20
728;DHT22;347;48.780;9.158;2022-10-26T16:47:06;18.40;40.50
728;DHT22;347;48.780;9.158;2022-10-26T16:49:32;18.40;40.80
728;DHT22;347;48.780;9.158;2022-10-26T16:51:57;18.30;40.70
728;DHT22;347;48.780;9.158;2022-10-26T16:54:23;18.30;40.90
728;DHT22;347;48.780;9.158;2022-10-26T16:56:50;18.30;41.30
728;DHT22;347;48.780;9.158;2022-10-26T16:59:15;18.30;41.40
728;DHT22;347;48.780;9.158;2022-10-26T17:01:41;18.20;41.40
728;DHT22;347;48.780;9.158;2022-10-26T17:04:08;18.20;41.50
728;DHT22;347;48.780;9.158;2022-10-26T17:06:34;18.20;41.80
728;DHT22;347;48.780;9.158;2022-10-26T17:08:59;18.20;41.90
728;DHT22;347;48.780;9.158;2022-10-26T17:11:25;18.10;41.80
728;DHT22;347;48.780;9.158;2022-10-26T17:13:55;18.10;42.00
728;DHT22;347;48.780;9.158;2022-10-26T17:16:22;18.10;42.20
728;DHT22;347;48.780;9.158;2022-10-26T17:18:48;18.10;42.30
728;DHT22;347;48.780;9.158;2022-10-26T17:21:16;18.10;42.60
728;DHT22;347;48.780;9.158;2022-10-26T17:23:42;18.00;42.50
728;DHT22;347;48.780;9.158;2022-10-26T17:26:10;18.00;42.70
728;DHT22;347;48.780;9.158;2022-10-26T17:28:36;18.00;42.80
728;DHT22;347;48.780;9.158;2022-10-26T17:31:14;17.90;43.00
728;DHT22;347;48.780;9.158;2022-10-26T17:33:42;17.90;43.30
728;DHT22;347;48.780;9.158;2022-10-26T17:36:09;17.90;43.60
728;DHT22;347;48.780;9.158;2022-10-26T17:38:37;17.90;43.50
728;DHT22;347;48.780;9.158;2022-10-26T17:41:05;17.90;43.50
728;DHT22;347;48.780;9.158;2022-10-26T17:43:32;17.90;43.60
728;DHT22;347;48.780;9.158;2022-10-26T17:46:03;17.80;43.40
728;DHT22;347;48.780;9.158;2022-10-26T17:48:29;17.80;43.50
728;DHT22;347;48.780;9.158;2022-10-26T17:50:59;17.80;43.40
728;DHT22;347;48.780;9.158;2022-10-26T17:53:26;17.80;43.70
728;DHT22;347;48.780;9.158;2022-10-26T17:56:11;17.80;43.90
728;DHT22;347;48.780;9.158;2022-10-26T17:58:37;17.70;44.10
728;DHT22;347;48.780;9.158;2022-10-26T18:01:08;17.70;44.20
728;DHT22;347;48.780;9.158;2022-10-26T18:03:34;17.70;44.30
728;DHT22;347;48.780;9.158;2022-10-26T18:06:01;17.70;44.50
728;DHT22;347;48.780;9.158;2022-10-26T18:08:30;17.70;44.70
728;DHT22;347;48.780;9.158;2022-10-26T18:10:56;17.70;44.50
728;DHT22;347;48.780;9.158;2022-10-26T18:13:23;17.70;44.60
728;DHT22;347;48.780;9.158;2022-10-26T18:15:51;17.60;44.60
728;DHT22;347;48.780;9.158;2022-10-26T18:18:16;17.60;44.80
728;DHT22;347;48.780;9.158;2022-10-26T18:20:42;17.60;45.40
728;DHT22;347;48.780;9.158;2022-10-26T18:23:07;17.60;44.90
728;DHT22;347;48.780;9.158;2022-10-26T18:25:33;17.60;44.80
728;DHT22;347;48.780;9.158;2022-10-26T18:28:00;17.50;44.90
728;DHT22;347;48.780;9.158;2022-10-26T18:30:26;17.50;44.90
728;DHT22;347;48.780;9.158;2022-10-26T18:32:52;17.60;44.50
728;DHT22;347;48.780;9.158;2022-10-26T18:35:18;17.60;44.60
728;DHT22;347;48.780;9.158;2022-10-26T18:37:44;17.50;44.60
728;DHT22;347;48.780;9.158;2022-10-26T18:40:10;17.50;44.80
728;DHT22;347;48.780;9.158;2022-10-26T18:42:36;17.50;44.90
728;DHT22;347;48.780;9.158;2022-10-26T18:45:02;17.50;44.80
728;DHT22;347;48.780;9.158;2022-10-26T18:47:29;17.40;44.80
728;DHT22;347;48.780;9.158;2022-10-26T18:49:55;17.40;44.80
728;DHT22;347;48.780;9.158;2022-10-26T18:52:21;17.40;44.70
728;DHT22;347;48.780;9.158;2022-10-26T18:54:53;17.40;44.40
728;DHT22;347;48.780;9.158;2022-10-26T18:57:19;17.40;44.40
728;DHT22;347;48.780;9.158;2022-10-26T18:59:49;17.40;44.60
728;DHT22;347;48.780;9.158;2022-10-26T19:02:15;17.40;44.60
728;DHT22;347;48.780;9.158;2022-10-26T19:04:41;17.20;45.30
728;DHT22;347;48.780;9.158;2022-10-26T19:07:06;17.10;46.00
728;DHT22;347;48.780;9.158;2022-10-26T19:09:32;17.20;46.10
728;DHT22;347;48.780;9.158;2022-10-26T19:11:58;17.20;46.20
728;DHT22;347;48.780;9.158;2022-10-26T19:14:23;17.20;46.00